Time;durP1;ratioP1;P1;durP2;ratioP2;P2;SDS_P1;SDS_P2;PMS_P1;PMS_P2;Temp;Humidity;BMP_temperature;BMP_pressure;BME280_temperature;BME280_humidity;BME280_pressure;Samples;Min_cycle;Max_cycle;Signal;HPM_P1;HPM_P2
2022/05/15 00:01:02;;;;;;;9.90;5.78;;;;;;;12.28;66.58;100757.84;5063762;28;20540;-57
2022/05/15 00:03:30;;;;;;;7.95;5.78;;;;;;;12.25;66.69;100750.13;5059525;28;20512;-56
2022/05/15 00:05:59;;;;;;;7.75;5.40;;;;;;;12.19;66.49;100755.00;5052674;28;20049;-54
2022/05/15 00:08:28;;;;;;;6.95;5.85;;;;;;;12.15;66.63;100749.22;5052908;28;20099;-54
2022/05/15 00:10:58;;;;;;;10.93;6.47;;;;;;;12.08;66.83;100748.88;5052544;28;20409;-53
2022/05/15 00:13:27;;;;;;;9.52;6.32;;;;;;;12.05;66.91;100752.28;5052699;28;20056;-53
2022/05/15 00:15:55;;;;;;;7.85;6.20;;;;;;;12.00;66.83;100760.78;5051664;28;20509;-55
2022/05/15 00:18:24;;;;;;;8.48;6.72;;;;;;;11.96;67.24;100755.00;5052597;28;20056;-57
2022/05/15 00:20:52;;;;;;;8.85;6.32;;;;;;;11.90;67.68;100761.84;5051865;28;20496;-55
2022/05/15 00:23:21;;;;;;;7.95;6.47;;;;;;;11.90;67.91;100759.06;5052498;28;20494;-57
2022/05/15 00:25:49;;;;;;;7.38;5.88;;;;;;;11.87;67.51;100761.66;5051985;28;20053;-52
2022/05/15 00:28:20;;;;;;;10.13;6.10;;;;;;;11.85;67.38;100767.53;5052937;28;20508;-52
2022/05/15 00:30:48;;;;;;;9.07;6.13;;;;;;;11.82;67.64;100762.56;5053042;28;20060;-52
2022/05/15 00:33:15;;;;;;;7.57;6.20;;;;;;;11.79;67.72;100763.22;5052068;28;20064;-57
2022/05/15 00:35:43;;;;;;;9.65;6.85;;;;;;;11.71;67.97;100762.00;5052145;28;20465;-53
2022/05/15 00:38:12;;;;;;;10.00;6.03;;;;;;;11.72;68.17;100762.84;5052587;28;20053;-54
2022/05/15 00:40:41;;;;;;;9.30;6.40;;;;;;;11.71;67.78;100758.41;5052585;28;20370;-53
2022/05/15 00:43:10;;;;;;;;;;;;;;;11.65;67.96;100751.28;5053216;28;20044;-53
2022/05/15 00:45:38;;;;;;;8.95;5.70;;;;;;;11.61;67.84;100747.47;5057530;28;19928;-54
2022/05/15 00:48:08;;;;;;;11.88;6.00;;;;;;;11.60;67.79;100745.84;5066131;28;20067;-53
2022/05/15 00:50:38;;;;;;;8.57;6.07;;;;;;;11.56;68.05;100746.44;5054814;28;20061;-51
2022/05/15 00:53:11;;;;;;;9.15;6.38;;;;;;;11.53;68.09;100752.66;5051300;28;20053;-51
2022/05/15 00:55:43;;;;;;;7.97;6.40;;;;;;;11.48;68.40;100747.19;5052282;28;20060;-51
2022/05/15 00:58:16;;;;;;;9.45;6.40;;;;;;;11.49;67.97;100754.44;5052056;28;20052;-54
2022/05/15 01:00:45;;;;;;;9.82;7.15;;;;;;;11.47;68.09;100750.31;5051032;28;20057;-51
2022/05/15 01:03:15;;;;;;;8.90;7.00;;;;;;;11.42;68.50;100750.41;5050901;28;20049;-57
2022/05/15 01:05:45;;;;;;;9.98;6.78;;;;;;;11.35;68.67;100751.66;5062037;28;20504;-54
2022/05/15 01:08:12;;;;;;;;;;;;;;;11.31;68.62;100750.63;5052146;28;20071;-53
2022/05/15 01:10:50;;;;;;;8.55;6.45;;;;;;;11.28;68.57;100750.44;5051735;28;19928;-55
2022/05/15 01:13:19;;;;;;;7.90;6.13;;;;;;;11.27;68.55;100751.56;5052099;28;20396;-53
2022/05/15 01:15:48;;;;;;;10.50;6.45;;;;;;;11.24;68.60;100755.00;5051389;28;20053;-51
2022/05/15 01:18:21;;;;;;;8.25;6.50;;;;;;;11.24;68.32;100755.00;5051582;28;20052;-53
2022/05/15 01:20:54;;;;;;;9.90;7.38;;;;;;;11.19;68.63;100755.91;5051660;28;20064;-56
2022/05/15 01:23:21;;;;;;;9.88;7.20;;;;;;;11.17;68.19;100755.41;5051808;28;20045;-57
2022/05/15 01:25:49;;;;;;;11.63;6.55;;;;;;;11.13;68.87;100754.41;5051428;28;20053;-56
2022/05/15 01:28:19;;;;;;;10.15;6.97;;;;;;;11.15;68.60;100752.13;5050952;28;20053;-53
2022/05/15 01:30:50;;;;;;;8.18;7.30;;;;;;;11.11;68.94;100746.34;5051155;28;20049;-52
2022/05/15 01:33:17;;;;;;;11.50;7.20;;;;;;;11.09;68.68;100745.00;5051907;28;20417;-54
2022/05/15 01:35:45;;;;;;;7.97;6.50;;;;;;;11.08;68.85;100746.13;5051171;28;20060;-52
2022/05/15 01:38:14;;;;;;;10.23;7.20;;;;;;;11.05;68.82;100750.38;5050605;28;20049;-54
2022/05/15 01:40:43;;;;;;;10.23;7.60;;;;;;;10.99;68.87;100748.81;5051437;28;20413;-53
2022/05/15 01:43:10;;;;;;;10.50;7.72;;;;;;;10.99;68.86;100759.16;5051743;28;20049;-57
2022/05/15 01:45:37;;;;;;;10.55;7.68;;;;;;;10.97;69.17;100751.09;5051509;28;20485;-56
2022/05/15 01:48:05;;;;;;;10.90;7.97;;;;;;;10.94;69.46;100748.91;5051293;28;20079;-56
2022/05/15 01:50:32;;;;;;;8.30;7.43;;;;;;;10.90;69.75;100748.72;5051078;28;20409;-55
2022/05/15 01:53:00;;;;;;;9.65;7.20;;;;;;;10.93;69.49;100744.50;5050555;28;20052;-53
2022/05/15 01:55:29;;;;;;;9.43;7.05;;;;;;;10.91;69.37;100739.22;5051520;28;20053;-52
2022/05/15 01:57:56;;;;;;;7.78;6.88;;;;;;;10.90;69.33;100748.72;5051474;28;20124;-55
2022/05/15 02:00:26;;;;;;;10.60;7.63;;;;;;;10.87;69.37;100752.13;5050917;28;20064;-54
2022/05/15 02:02:53;;;;;;;12.20;6.82;;;;;;;10.86;69.31;100744.91;5051627;28;20053;-56
2022/05/15 02:05:22;;;;;;;9.07;7.25;;;;;;;10.80;69.59;100748.94;5053979;28;20057;-52
2022/05/15 02:07:49;;;;;;;10.73;7.43;;;;;;;10.79;69.67;100746.44;5054348;28;20075;-56
2022/05/15 02:10:26;;;;;;;9.30;7.28;;;;;;;10.75;69.93;100746.22;5054816;28;20053;-57
2022/05/15 02:12:55;;;;;;;11.50;7.32;;;;;;;10.73;69.39;100751.28;5055023;28;20057;-57
2022/05/15 02:15:23;;;;;;;9.43;7.47;;;;;;;10.75;69.37;100743.44;5055510;28;20053;-57
2022/05/15 02:17:50;;;;;;;10.57;8.10;;;;;;;10.70;69.70;100749.13;5055036;28;20049;-56
2022/05/15 02:20:17;;;;;;;6.95;6.25;;;;;;;10.66;69.31;100740.56;5054726;28;20520;-57
2022/05/15 02:22:45;;;;;;;9.82;7.47;;;;;;;10.66;69.16;100742.50;5057187;28;20041;-57
2022/05/15 02:25:14;;;;;;;9.07;7.97;;;;;;;10.63;69.33;100743.97;5061272;28;20059;-51
2022/05/15 02:27:42;;;;;;;10.32;7.75;;;;;;;10.64;69.41;100742.00;5055098;28;20045;-53
2022/05/15 02:30:13;;;;;;;10.88;8.80;;;;;;;10.60;69.47;100738.19;5054542;28;20390;-54
2022/05/15 02:32:40;;;;;;;9.43;7.28;;;;;;;10.59;69.80;100742.13;5054462;28;20044;-54
2022/05/15 02:35:11;;;;;;;10.75;7.70;;;;;;;10.54;69.82;100737.44;5054578;28;20493;-54
2022/05/15 02:37:41;;;;;;;10.00;7.68;;;;;;;10.55;69.36;100739.94;5053852;28;20056;-55
2022/05/15 02:40:10;;;;;;;7.47;6.78;;;;;;;10.49;69.42;100743.94;5054589;28;20136;-53
2022/05/15 02:42:37;;;;;;;11.70;8.15;;;;;;;10.46;69.55;100739.00;5054509;28;20054;-51
2022/05/15 02:45:05;;;;;;;9.20;7.60;;;;;;;10.43;69.41;100739.59;5054243;28;20056;-52
2022/05/15 02:47:34;;;;;;;11.68;7.82;;;;;;;10.39;69.72;100740.53;5054103;28;20049;-52
2022/05/15 02:52:46;;;;;;;10.32;6.78;;;;;;;10.40;68.98;100754.16;5054124;28;20486;-51
2022/05/15 02:55:14;;;;;;;11.30;6.72;;;;;;;10.35;69.26;100745.88;5054446;28;20061;-55
2022/05/15 02:57:42;;;;;;;10.18;7.00;;;;;;;10.31;69.10;100740.09;5054504;28;20056;-54
2022/05/15 03:00:15;;;;;;;9.90;7.53;;;;;;;10.27;69.50;100744.59;5053737;28;20087;-54
2022/05/15 03:02:46;;;;;;;10.35;7.60;;;;;;;10.27;69.63;100747.38;5054187;28;20041;-52
2022/05/15 03:05:16;;;;;;;8.30;7.20;;;;;;;10.27;69.41;100749.34;5053983;28;20044;-53
2022/05/15 03:07:43;;;;;;;;;;;;;;;10.23;69.28;100751.91;5063121;28;20495;-54
2022/05/15 03:10:12;;;;;;;10.77;7.03;;;;;;;10.14;69.53;100743.44;5053893;28;20385;-56
2022/05/15 03:12:40;;;;;;;8.80;7.32;;;;;;;10.08;69.89;100741.88;5054090;28;20075;-55
2022/05/15 03:15:11;;;;;;;8.95;7.18;;;;;;;10.11;69.99;100744.03;5052592;28;20057;-53
2022/05/15 03:17:38;;;;;;;11.63;7.30;;;;;;;10.05;70.13;100738.84;5053848;28;20397;-56
2022/05/15 03:20:09;;;;;;;12.15;8.48;;;;;;;10.08;69.90;100741.88;5053337;28;20619;-57
2022/05/15 03:22:37;;;;;;;10.10;7.65;;;;;;;10.02;70.16;100745.06;5052788;28;20053;-54
2022/05/15 03:25:04;;;;;;;9.13;7.40;;;;;;;10.03;69.91;100744.72;5053251;28;20053;-52
2022/05/15 03:27:32;;;;;;;9.00;7.38;;;;;;;9.97;69.93;100757.06;5052604;28;20068;-51
2022/05/15 03:29:59;;;;;;;8.10;7.13;;;;;;;9.94;70.32;100743.78;5053295;28;20053;-55
2022/05/15 03:32:27;;;;;;;8.68;7.20;;;;;;;9.93;70.19;100745.75;5053904;28;20061;-56
2022/05/15 03:34:55;;;;;;;12.75;8.00;;;;;;;9.93;70.26;100739.31;5052903;28;20057;-53
2022/05/15 03:37:23;;;;;;;11.70;8.68;;;;;;;9.93;70.36;100751.31;5056523;28;20049;-55
2022/05/15 03:39:50;;;;;;;12.50;7.38;;;;;;;9.87;70.80;100743.31;5053199;28;20536;-51
2022/05/15 03:42:19;;;;;;;11.45;8.35;;;;;;;9.87;70.87;100746.09;5053663;28;20060;-53
2022/05/15 03:44:46;;;;;;;12.80;7.65;;;;;;;9.88;70.85;100748.59;5053183;28;20156;-55
2022/05/15 03:47:13;;;;;;;10.70;8.43;;;;;;;9.92;70.83;100743.25;5053152;28;20057;-57
2022/05/15 03:49:41;;;;;;;10.10;8.55;;;;;;;9.91;70.84;100736.88;5051998;28;20397;-53
2022/05/15 03:52:09;;;;;;;10.18;8.32;;;;;;;9.94;70.46;100741.00;5055650;28;20052;-53
2022/05/15 03:54:41;;;;;;;10.30;7.70;;;;;;;9.98;70.56;100747.59;5053176;28;20048;-53
2022/05/15 03:57:09;;;;;;;8.82;7.93;;;;;;;9.94;70.26;100736.25;5053066;28;20048;-56
2022/05/15 03:59:38;;;;;;;8.52;7.45;;;;;;;9.97;70.27;100740.38;5052963;28;20056;-53
2022/05/15 04:02:07;;;;;;;9.60;7.20;;;;;;;9.98;69.89;100735.66;5053145;28;20055;-56
2022/05/15 04:04:35;;;;;;;10.20;8.05;;;;;;;9.98;69.92;100733.69;5051656;28;20049;-54
2022/05/15 04:07:03;;;;;;;11.18;8.65;;;;;;;10.05;70.11;100736.91;5052890;28;20056;-55
2022/05/15 04:09:32;;;;;;;12.93;8.60;;;;;;;10.01;70.13;100730.28;5053109;28;20434;-53
2022/05/15 04:12:01;;;;;;;10.98;7.22;;;;;;;10.06;69.82;100729.41;5052470;28;20049;-54
2022/05/15 04:14:29;;;;;;;10.35;7.50;;;;;;;10.10;69.69;100730.41;5052845;28;20477;-56
2022/05/15 04:16:57;;;;;;;8.95;6.68;;;;;;;10.11;69.71;100730.13;5052673;28;20056;-55
2022/05/15 04:19:25;;;;;;;7.82;6.90;;;;;;;10.15;69.52;100724.78;5053669;28;20053;-52
2022/05/15 04:21:53;;;;;;;8.40;7.32;;;;;;;10.19;69.37;100734.16;5056054;28;20056;-52
2022/05/15 04:24:20;;;;;;;10.00;7.55;;;;;;;10.20;69.65;100732.19;5052293;28;20056;-53
2022/05/15 04:26:48;;;;;;;8.63;7.50;;;;;;;10.22;69.68;100729.94;5052423;28;20063;-55
2022/05/15 04:29:17;;;;;;;12.77;8.52;;;;;;;10.22;69.59;100718.81;5051305;28;20057;-53
2022/05/15 04:31:45;;;;;;;11.70;8.20;;;;;;;10.23;69.41;100723.25;5052054;28;20052;-56
2022/05/15 04:34:15;;;;;;;14.43;9.13;;;;;;;10.24;69.92;100722.09;5051182;28;20049;-57
2022/05/15 04:36:43;;;;;;;13.07;8.73;;;;;;;10.33;69.47;100723.91;5057373;28;20044;-52
2022/05/15 04:39:10;;;;;;;8.02;7.15;;;;;;;10.38;69.46;100727.75;5059226;28;20057;-53
2022/05/15 04:41:37;;;;;;;11.02;7.65;;;;;;;10.43;69.13;100731.25;5052230;28;20075;-54
2022/05/15 04:44:05;;;;;;;8.75;7.15;;;;;;;10.53;69.24;100736.63;5052307;28;20053;-53
2022/05/15 04:46:34;;;;;;;7.55;6.18;;;;;;;10.54;68.97;100734.66;5052491;28;20045;-55
2022/05/15 04:49:02;;;;;;;8.02;7.22;;;;;;;10.55;68.92;100730.75;5052101;28;20048;-54
2022/05/15 04:51:29;;;;;;;9.00;7.03;;;;;;;10.63;68.70;100730.03;5052682;28;20511;-53
2022/05/15 04:53:57;;;;;;;11.02;7.45;;;;;;;10.66;68.83;100732.19;5051775;28;20060;-55
2022/05/15 04:56:24;;;;;;;8.20;7.32;;;;;;;10.71;68.67;100726.53;5051969;28;20048;-53
2022/05/15 04:58:52;;;;;;;8.95;6.63;;;;;;;10.79;68.70;100727.75;5052188;28;20049;-54
2022/05/15 05:01:19;;;;;;;8.30;6.72;;;;;;;10.86;68.86;100725.41;5051323;28;20053;-54
2022/05/15 05:03:48;;;;;;;7.07;6.43;;;;;;;10.93;68.49;100722.19;5051857;28;20060;-56
2022/05/15 05:06:15;;;;;;;9.25;6.22;;;;;;;11.01;68.05;100729.00;5050730;28;20045;-55
2022/05/15 05:08:42;;;;;;;7.68;6.88;;;;;;;11.05;68.00;100727.25;5051612;28;20056;-53
2022/05/15 05:11:10;;;;;;;7.53;6.68;;;;;;;11.09;68.00;100725.50;5051746;28;20053;-57
2022/05/15 05:13:37;;;;;;;8.38;7.05;;;;;;;11.22;67.86;100734.97;5051114;28;20060;-51
2022/05/15 05:16:05;;;;;;;7.68;6.95;;;;;;;11.30;67.56;100731.44;5051793;28;20064;-53
2022/05/15 05:18:32;;;;;;;8.57;7.30;;;;;;;11.33;67.56;100726.03;5051601;28;20385;-55
2022/05/15 05:21:01;;;;;;;10.68;7.97;;;;;;;11.44;67.51;100732.22;5061256;28;20056;-52
2022/05/15 05:23:28;;;;;;;10.35;8.23;;;;;;;11.48;67.39;100741.59;5053056;28;20060;-54
2022/05/15 05:25:56;;;;;;;8.73;7.55;;;;;;;11.59;67.32;100739.44;5051587;28;20059;-56
2022/05/15 05:28:23;;;;;;;11.15;8.30;;;;;;;11.68;67.02;100736.72;5051435;28;20076;-54
2022/05/15 05:30:51;;;;;;;10.68;8.15;;;;;;;11.72;67.08;100744.13;5051625;28;20048;-52
2022/05/15 05:33:20;;;;;;;8.63;7.60;;;;;;;11.85;66.89;100749.97;5051017;28;20056;-53
2022/05/15 05:35:47;;;;;;;9.15;7.68;;;;;;;11.93;66.83;100761.25;5066795;28;20075;-56
2022/05/15 05:38:16;;;;;;;9.85;8.05;;;;;;;12.02;67.11;100758.50;5062819;28;20053;-56
2022/05/15 05:40:43;;;;;;;11.77;8.52;;;;;;;12.14;66.43;100758.78;5054357;28;20048;-52
2022/05/15 05:43:13;;;;;;;9.50;8.20;;;;;;;12.22;66.46;100761.94;5055108;28;20049;-56
2022/05/15 05:45:40;;;;;;;9.52;8.10;;;;;;;12.35;66.33;100761.03;5055193;28;20472;-54
2022/05/15 05:48:08;;;;;;;10.82;8.88;;;;;;;12.42;66.34;100755.81;5055100;28;20075;-52
2022/05/15 05:50:37;;;;;;;10.30;7.95;;;;;;;12.50;66.14;100757.84;5054225;28;20064;-53
2022/05/15 05:53:05;;;;;;;9.07;8.13;;;;;;;12.59;66.30;100769.88;5055417;28;20053;-54
2022/05/15 05:55:33;;;;;;;10.52;8.98;;;;;;;12.68;66.36;100761.56;5054800;28;20060;-54
2022/05/15 05:58:01;;;;;;;11.43;8.00;;;;;;;12.83;65.98;100748.28;5055288;28;20053;-53
2022/05/15 06:00:30;;;;;;;11.27;8.55;;;;;;;12.92;65.59;100754.75;5054450;28;20128;-55
2022/05/15 06:05:39;;;;;;;9.75;8.10;;;;;;;13.17;65.14;100762.38;5055408;28;20045;-57
2022/05/15 06:08:07;;;;;;;9.90;8.23;;;;;;;13.32;64.95;100757.50;5054718;28;20064;-54
2022/05/15 06:10:36;;;;;;;9.65;7.18;;;;;;;13.45;64.96;100756.53;5054419;28;20406;-54
2022/05/15 06:13:04;;;;;;;8.60;7.32;;;;;;;13.62;64.54;100754.91;5055542;28;20077;-55
2022/05/15 06:15:31;;;;;;;9.32;7.50;;;;;;;13.78;64.33;100756.91;5055001;28;20045;-54
2022/05/15 06:17:59;;;;;;;10.68;7.55;;;;;;;14.00;63.88;100752.28;5054111;28;20053;-53
2022/05/15 06:20:27;;;;;;;9.55;7.57;;;;;;;14.17;63.56;100752.28;5060173;28;20048;-56
2022/05/15 06:22:57;;;;;;;11.82;8.10;;;;;;;14.32;63.20;100742.53;5054723;28;20097;-53
2022/05/15 06:25:25;;;;;;;8.85;7.60;;;;;;;14.45;62.75;100742.63;5054043;28;20049;-56
2022/05/15 06:27:54;;;;;;;8.50;7.00;;;;;;;14.65;62.61;100752.34;5054925;28;20064;-56
2022/05/15 06:30:22;;;;;;;8.27;6.82;;;;;;;14.79;62.69;100752.94;5044128;28;20505;-52
2022/05/15 06:32:49;;;;;;;10.68;7.93;;;;;;;14.96;62.56;100744.44;5054696;28;20052;-57
2022/05/15 06:35:17;;;;;;;9.20;7.07;;;;;;;15.14;61.74;100738.72;5061249;28;20515;-53
2022/05/15 06:37:47;;;;;;;9.68;7.53;;;;;;;15.27;61.71;100737.69;5054382;28;20045;-52
2022/05/15 06:40:15;;;;;;;8.95;7.45;;;;;;;15.43;61.47;100737.88;5053631;28;20056;-56
2022/05/15 06:42:43;;;;;;;9.98;7.40;;;;;;;15.57;61.35;100738.44;5054561;28;20060;-56
2022/05/15 06:45:14;;;;;;;9.82;8.02;;;;;;;15.74;61.89;100734.72;5053864;28;20404;-57
2022/05/15 06:47:42;;;;;;;9.50;7.38;;;;;;;15.96;61.66;100738.34;5054704;28;20053;-54
2022/05/15 06:50:10;;;;;;;8.93;7.78;;;;;;;16.13;61.43;100738.19;5068434;28;20127;-54
2022/05/15 06:52:38;;;;;;;8.50;6.95;;;;;;;16.29;60.86;100731.91;5053627;28;20071;-53
2022/05/15 06:55:07;;;;;;;8.93;6.93;;;;;;;16.51;60.46;100725.06;5053628;28;20057;-56
2022/05/15 06:57:33;;;;;;;8.60;7.70;;;;;;;16.67;59.94;100733.63;5045427;28;20068;-52
2022/05/15 07:00:04;;;;;;;8.63;6.80;;;;;;;16.88;59.43;100727.91;5053648;28;20103;-55
2022/05/15 07:02:32;;;;;;;9.13;7.38;;;;;;;17.03;58.69;100728.06;5054206;28;20071;-56
2022/05/15 07:05:00;;;;;;;9.40;7.07;;;;;;;17.25;58.56;100723.91;5053241;28;20053;-56
2022/05/15 07:07:27;;;;;;;7.35;5.97;;;;;;;17.47;58.42;100726.59;5053659;28;20053;-53
2022/05/15 07:09:55;;;;;;;8.20;5.78;;;;;;;17.58;58.53;100727.75;5053788;28;20045;-57
2022/05/15 07:12:22;;;;;;;7.68;6.15;;;;;;;17.78;58.24;100729.53;5052299;28;20056;-52
2022/05/15 07:14:52;;;;;;;9.48;6.40;;;;;;;17.97;57.76;100728.91;5053360;28;20045;-55
2022/05/15 07:17:19;;;;;;;7.50;5.97;;;;;;;18.21;57.36;100730.00;5053043;28;20048;-56
2022/05/15 07:19:48;;;;;;;10.23;6.22;;;;;;;18.44;56.54;100725.41;5053734;28;20382;-54
2022/05/15 07:22:16;;;;;;;9.20;6.00;;;;;;;18.47;56.05;100729.50;5052883;28;20051;-57
2022/05/15 07:24:43;;;;;;;7.78;5.57;;;;;;;18.65;56.00;100715.88;5053108;28;20053;-57
2022/05/15 07:27:10;;;;;;;9.63;5.53;;;;;;;18.79;55.01;100726.72;5052741;28;20068;-54
2022/05/15 07:29:40;;;;;;;9.40;5.50;;;;;;;19.13;54.50;100719.53;5052940;28;20055;-55
2022/05/15 07:32:08;;;;;;;;;;;;;;;19.47;53.39;100722.72;5053308;28;20404;-58
2022/05/15 07:34:38;;;;;;;9.32;5.30;;;;;;;20.34;51.48;100711.19;5050645;28;19921;-57
2022/05/15 07:37:08;;;;;;;8.57;4.80;;;;;;;21.28;48.74;100711.59;5051013;28;20401;-54
2022/05/15 07:39:35;;;;;;;8.50;4.45;;;;;;;22.13;46.45;100705.44;5049881;28;20056;-55
2022/05/15 07:42:02;;;;;;;8.07;4.20;;;;;;;22.95;44.15;100705.47;5051959;28;20072;-54
2022/05/15 07:44:30;;;;;;;8.07;4.82;;;;;;;23.69;41.83;100698.66;5052206;28;20072;-57
2022/05/15 07:46:57;;;;;;;7.47;4.68;;;;;;;24.54;40.82;100695.72;5056693;28;20045;-55
2022/05/15 07:49:25;;;;;;;9.15;4.53;;;;;;;25.33;39.16;100695.72;5052941;28;20045;-58
2022/05/15 07:51:52;;;;;;;6.80;3.97;;;;;;;26.11;37.35;100686.06;5052971;28;20064;-54
2022/05/15 07:54:21;;;;;;;9.93;4.70;;;;;;;26.70;36.35;100686.09;5051412;28;20060;-57
2022/05/15 07:56:48;;;;;;;7.72;4.10;;;;;;;27.42;34.81;100691.16;5052939;28;20053;-55
2022/05/15 07:59:16;;;;;;;5.82;3.80;;;;;;;28.29;33.48;100686.00;5052680;28;20052;-55
2022/05/15 08:01:43;;;;;;;7.22;3.80;;;;;;;29.40;32.51;100682.53;5050770;28;20045;-56
2022/05/15 08:04:11;;;;;;;6.45;3.42;;;;;;;30.22;30.85;100686.59;5052068;28;20052;-55
2022/05/15 08:09:25;;;;;;;5.28;3.40;;;;;;;31.99;28.21;100677.09;5052975;28;20523;-56
2022/05/15 08:11:54;;;;;;;7.47;3.83;;;;;;;32.49;26.94;100679.22;5052841;28;20432;-59
2022/05/15 08:14:21;;;;;;;8.77;3.80;;;;;;;33.22;25.62;100677.63;5052262;28;20249;-58
2022/05/15 08:16:49;;;;;;;7.97;3.85;;;;;;;33.48;25.49;100678.34;5052330;28;20049;-56
2022/05/15 08:24:47;;;;;;;4.88;3.15;;;;;;;34.82;23.14;100668.97;5057942;28;20059;-58
2022/05/15 08:27:14;;;;;;;8.55;3.60;;;;;;;35.49;22.12;100668.13;5052086;28;20056;-56
2022/05/15 08:29:41;;;;;;;7.63;3.45;;;;;;;35.46;22.35;100660.38;5051467;28;20515;-59
2022/05/15 08:32:09;;;;;;;8.10;3.60;;;;;;;36.30;20.87;100655.25;5051320;28;20052;-59
2022/05/15 08:34:37;;;;;;;8.60;3.50;;;;;;;36.92;19.75;100660.41;5061810;28;20097;-51
2022/05/15 08:37:06;;;;;;;5.32;3.15;;;;;;;37.75;19.40;100658.97;5049804;28;20045;-58
2022/05/15 08:39:33;;;;;;;9.80;3.42;;;;;;;38.31;17.96;100654.13;5051891;28;20184;-59
2022/05/15 08:42:14;;;;;;;6.30;3.03;;;;;;;38.60;17.16;100652.50;5051257;28;20045;-58
2022/05/15 08:44:45;;;;;;;6.80;2.92;;;;;;;39.34;16.66;100649.25;5051017;28;20052;-59
2022/05/15 08:47:33;;;;;;;6.40;2.95;;;;;;;39.71;16.04;100654.44;5054373;28;20059;-57
2022/05/15 08:50:07;;;;;;;8.20;3.08;;;;;;;40.59;15.19;100651.22;5060871;28;20059;-56
2022/05/15 08:52:42;;;;;;;7.25;2.90;;;;;;;40.51;15.40;100650.94;5052440;28;20404;-56
2022/05/15 08:55:15;;;;;;;6.65;2.90;;;;;;;41.66;14.51;100645.09;5051556;28;20045;-60
2022/05/15 08:57:50;;;;;;;6.03;2.85;;;;;;;41.27;14.06;100646.56;5052583;28;20059;-57
2022/05/15 09:00:25;;;;;;;5.72;2.70;;;;;;;41.82;13.60;100638.47;5062022;28;20056;-60
2022/05/15 09:02:55;;;;;;;6.45;2.85;;;;;;;41.85;14.76;100639.53;5072301;28;20067;-60
2022/05/15 09:05:27;;;;;;;5.43;2.50;;;;;;;42.10;13.50;100646.47;5059584;28;20060;-60
2022/05/15 09:08:02;;;;;;;5.18;3.05;;;;;;;42.52;13.66;100636.59;5052393;28;20504;-60
2022/05/15 09:10:34;;;;;;;7.60;3.35;;;;;;;42.11;13.53;100648.88;5051869;28;20064;-60
2022/05/15 09:13:11;;;;;;;6.13;2.78;;;;;;;42.50;13.37;100641.41;5052265;28;20053;-58
2022/05/15 09:15:57;;;;;;;6.45;2.60;;;;;;;42.39;13.92;100631.25;5050729;28;20053;-58
2022/05/15 09:18:26;;;;;;;6.60;3.28;;;;;;;42.50;13.30;100635.53;5053336;28;20044;-58
2022/05/15 09:21:03;;;;;;;5.45;2.88;;;;;;;43.83;12.47;100636.81;5061530;28;20056;-58
2022/05/15 09:23:34;;;;;;;6.65;2.65;;;;;;;43.76;12.80;100630.19;5052150;28;20500;-58
2022/05/15 09:26:13;;;;;;;7.13;2.97;;;;;;;44.43;12.10;100627.22;5051781;28;20041;-60
2022/05/15 09:28:46;;;;;;;5.20;2.72;;;;;;;44.40;11.49;100623.25;5051512;28;20049;-58
2022/05/15 09:31:24;;;;;;;6.90;2.85;;;;;;;44.45;11.84;100631.22;5051815;28;20476;-58
2022/05/15 09:33:56;;;;;;;6.05;3.03;;;;;;;45.07;11.48;100617.94;5063898;28;20057;-58
2022/05/15 09:36:26;;;;;;;6.93;2.92;;;;;;;45.54;11.39;100626.41;5061219;28;20128;-58
2022/05/15 09:39:17;;;;;;;5.32;2.60;;;;;;;45.60;10.80;100621.22;5051490;28;20075;-58
2022/05/15 09:44:33;;;;;;;5.70;2.58;;;;;;;46.33;10.51;100616.28;5057581;28;20064;-59
2022/05/15 09:47:04;;;;;;;5.65;2.83;;;;;;;45.69;10.01;100614.16;5051454;28;20048;-58
2022/05/15 09:49:35;;;;;;;5.57;2.38;;;;;;;46.23;9.79;100607.09;5069022;28;20063;-59
2022/05/15 09:52:10;;;;;;;6.18;2.65;;;;;;;46.23;9.74;100610.03;5060796;28;20393;-59
2022/05/15 09:54:44;;;;;;;6.40;2.63;;;;;;;46.03;9.78;100616.56;5051462;28;20060;-59
2022/05/15 09:57:19;;;;;;;5.13;3.28;;;;;;;45.94;10.83;100615.59;5050789;28;20056;-58
2022/05/15 09:59:59;;;;;;;5.60;2.58;;;;;;;46.43;9.99;100601.94;5051223;28;20052;-59
2022/05/15 10:02:38;;;;;;;6.30;2.90;;;;;;;46.43;9.95;100608.59;5053914;28;20056;-59
2022/05/15 10:05:16;;;;;;;6.60;2.75;;;;;;;46.73;9.87;100607.50;5039982;28;20064;-59
2022/05/15 10:07:51;;;;;;;5.40;2.50;;;;;;;46.34;10.43;100606.88;5058488;28;20057;-59
2022/05/15 10:10:22;;;;;;;6.10;2.75;;;;;;;47.17;9.62;100602.81;5062865;28;20416;-59
2022/05/15 10:12:55;;;;;;;3.58;2.28;;;;;;;47.21;9.29;100598.72;5059366;28;20048;-59
2022/05/15 10:15:26;;;;;;;4.57;2.53;;;;;;;46.74;9.91;100601.00;5049775;28;20075;-59
2022/05/15 10:17:55;;;;;;;6.55;2.47;;;;;;;46.38;9.75;100600.66;5050473;28;20045;-59
2022/05/15 10:20:26;;;;;;;4.80;2.60;;;;;;;46.02;9.62;100598.09;5051767;28;20501;-59
2022/05/15 10:22:59;;;;;;;5.32;2.75;;;;;;;46.88;9.36;100595.16;5053640;28;20053;-59
2022/05/15 10:25:37;;;;;;;6.05;2.97;;;;;;;46.44;9.17;100591.75;5051865;28;20060;-59
2022/05/15 10:28:16;;;;;;;5.00;2.60;;;;;;;46.70;8.92;100594.66;5054898;28;20052;-59
2022/05/15 10:30:56;;;;;;;5.05;2.35;;;;;;;46.35;10.20;100581.97;5047094;28;20064;-59
2022/05/15 10:33:24;;;;;;;4.28;2.10;;;;;;;46.91;9.54;100588.09;5050977;28;20049;-59
2022/05/15 10:36:01;;;;;;;5.63;2.80;;;;;;;46.44;9.62;100586.63;5053815;28;20515;-59
2022/05/15 10:38:46;;;;;;;8.18;2.92;;;;;;;47.30;9.84;100578.38;5054218;28;20416;-59
2022/05/15 10:41:19;;;;;;;7.18;2.60;;;;;;;46.49;9.16;100585.72;5054367;28;20053;-59
2022/05/15 10:43:58;;;;;;;6.88;2.95;;;;;;;44.53;10.97;100578.53;5052419;28;20504;-58
2022/05/15 10:46:34;;;;;;;5.38;2.35;;;;;;;44.84;11.72;100579.25;5063323;28;20472;-58
2022/05/15 10:49:29;;;;;;;5.22;2.75;;;;;;;44.52;11.19;100579.88;5061689;28;20057;-58
2022/05/15 10:52:07;;;;;;;5.57;2.50;;;;;;;45.50;10.51;100582.59;5054414;28;20049;-59
2022/05/15 10:57:50;;;;;;;7.93;3.10;;;;;;;46.29;10.12;100562.81;5030827;28;20049;-59
2022/05/15 11:00:21;;;;;;;5.22;2.67;;;;;;;46.93;10.51;100567.69;5056215;28;20444;-57
2022/05/15 11:03:16;;;;;;;5.55;2.55;;;;;;;46.87;10.59;100558.94;5054173;28;20057;-57
2022/05/15 11:05:55;;;;;;;6.55;2.97;;;;;;;47.17;9.11;100564.47;5052690;28;20496;-57
2022/05/15 11:08:35;;;;;;;6.03;2.60;;;;;;;47.14;10.72;100556.72;5054093;28;20056;-57
2022/05/15 11:11:11;;;;;;;5.45;2.72;;;;;;;47.50;10.06;100552.41;5053487;28;20061;-58
2022/05/15 11:13:48;;;;;;;6.13;2.83;;;;;;;44.52;10.52;100550.50;5053036;28;20057;-56
2022/05/15 11:16:22;;;;;;;6.32;2.63;;;;;;;45.66;10.70;100548.41;5070320;28;20052;-57
2022/05/15 11:19:11;;;;;;;6.97;3.20;;;;;;;46.32;10.40;100555.78;5071528;28;20064;-57
2022/05/15 11:21:49;;;;;;;6.47;2.72;;;;;;;46.32;9.88;100538.09;5053625;28;20053;-58
2022/05/15 11:24:27;;;;;;;7.43;3.25;;;;;;;46.61;9.78;100529.50;5053684;28;20374;-57
2022/05/15 11:27:01;;;;;;;6.40;3.35;;;;;;;46.76;9.59;100529.69;5054171;28;20079;-57
2022/05/15 11:29:36;;;;;;;5.60;2.80;;;;;;;46.97;9.82;100526.84;5055823;28;20354;-57
2022/05/15 11:32:28;;;;;;;6.63;2.88;;;;;;;46.55;10.61;100520.78;5053991;28;20057;-57
2022/05/15 11:35:07;;;;;;;4.90;2.50;;;;;;;47.22;9.98;100520.66;5053497;28;20049;-57
2022/05/15 11:37:53;;;;;;;7.22;3.05;;;;;;;46.50;10.03;100518.75;5052818;28;20148;-57
2022/05/15 11:40:31;;;;;;;7.50;3.10;;;;;;;46.67;10.25;100522.13;5053232;28;20060;-57
2022/05/15 11:42:59;;;;;;;5.97;2.95;;;;;;;46.32;10.06;100518.25;5053713;28;20057;-56
2022/05/15 11:45:39;;;;;;;6.13;2.90;;;;;;;46.05;10.19;100519.63;5062790;28;20057;-57
2022/05/15 11:48:20;;;;;;;6.05;3.50;;;;;;;46.33;10.63;100513.97;5053604;28;20473;-57
2022/05/15 11:50:58;;;;;;;5.75;2.53;;;;;;;46.75;10.06;100505.31;5052972;28;20056;-57
2022/05/15 11:53:31;;;;;;;7.93;3.25;;;;;;;46.79;9.63;100510.91;5053450;28;20053;-57
2022/05/15 11:55:59;;;;;;;5.38;2.60;;;;;;;46.56;10.20;100511.38;5053194;28;20053;-57
2022/05/15 11:58:34;;;;;;;6.47;2.80;;;;;;;46.25;9.49;100504.22;5056250;28;20055;-57